Time;durP1;ratioP1;P1;durP2;ratioP2;P2;SDS_P1;SDS_P2;PMS_P1;PMS_P2;Temp;Humidity;BMP_temperature;BMP_pressure;BME280_temperature;BME280_humidity;BME280_pressure;Samples;Min_cycle;Max_cycle;Signal;HPM_P1;HPM_P2
2022/10/12 00:00:38;;;;;;;39.65;19.75;;;;;;;6.02;86.80;101577.22;3679995;79;98530;-86
2022/10/12 00:05:39;;;;;;;34.43;18.05;;;;;;;5.99;86.91;101579.20;3681587;79;32292;-85
2022/10/12 00:10:42;;;;;;;29.60;15.37;;;;;;;5.97;86.98;101582.28;3681955;79;98673;-85
2022/10/12 00:15:43;;;;;;;30.85;12.65;;;;;;;5.94;87.03;101579.38;3687005;80;30635;-86
2022/10/12 00:20:44;;;;;;;26.60;11.97;;;;;;;5.90;87.08;101584.66;3678132;78;98299;-86
2022/10/12 00:25:44;;;;;;;19.27;10.20;;;;;;;5.87;87.12;101579.84;3691138;78;25904;-85
2022/10/12 00:30:45;;;;;;;19.53;8.73;;;;;;;5.86;87.26;101586.98;3681613;78;98435;-85
2022/10/12 00:35:46;;;;;;;23.80;10.37;;;;;;;5.80;87.37;101587.70;3683313;78;26189;-85
2022/10/12 00:40:47;;;;;;;19.53;9.63;;;;;;;5.76;87.15;101580.41;3667669;78;98636;-85
2022/10/12 00:45:48;;;;;;;21.43;9.10;;;;;;;5.68;87.28;101587.45;3685805;78;26634;-86
2022/10/12 00:50:48;;;;;;;20.68;10.10;;;;;;;5.64;87.49;101591.95;3684184;78;98496;-85
2022/10/12 00:55:54;;;;;;;23.37;10.10;;;;;;;5.61;87.58;101593.12;3717463;78;32941;-85
2022/10/12 01:00:55;;;;;;;22.80;10.70;;;;;;;5.57;87.45;101588.86;3695019;78;98415;-85
2022/10/12 01:05:56;;;;;;;26.33;13.90;;;;;;;5.55;87.84;101590.29;3718251;78;32871;-85
2022/10/12 01:10:57;;;;;;;28.67;16.10;;;;;;;5.54;87.81;101592.23;3720938;78;98217;-85
2022/10/12 01:16:04;;;;;;;27.17;16.10;;;;;;;5.51;87.95;101594.21;3708825;78;33147;-85
2022/10/12 01:21:20;;;;;;;25.08;14.80;;;;;;;5.49;87.89;101588.82;3700481;78;25933;-85
2022/10/12 01:26:57;;;;;;;24.92;14.43;;;;;;;5.45;88.02;101583.19;3701774;78;98459;-85
2022/10/12 01:32:25;;;;;;;31.50;14.60;;;;;;;5.44;88.09;101588.41;3688218;78;25906;-85
2022/10/12 01:38:01;;;;;;;25.30;17.60;;;;;;;5.37;88.01;101581.23;3690442;78;98505;-86
2022/10/12 01:43:02;;;;;;;28.32;18.45;;;;;;;5.35;88.03;101590.86;3717099;78;26175;-85
2022/10/12 01:48:04;;;;;;;44.00;22.67;;;;;;;5.32;88.18;101584.65;3698648;78;98528;-86
2022/10/12 01:53:19;;;;;;;40.17;19.40;;;;;;;5.30;88.27;101593.14;3717913;78;25758;-86
2022/10/12 01:58:40;;;;;;;35.23;18.20;;;;;;;5.28;88.22;101593.21;3687298;78;98649;-85
2022/10/12 02:03:58;;;;;;;35.43;14.40;;;;;;;5.26;88.34;101594.09;3720050;77;25858;-85
2022/10/12 02:09:11;;;;;;;32.43;11.10;;;;;;;5.22;88.31;101594.47;3699744;78;98630;-85
2022/10/12 02:14:19;;;;;;;24.47;11.33;;;;;;;5.14;88.19;101590.56;3705736;78;25864;-85
2022/10/12 02:19:31;;;;;;;30.85;12.98;;;;;;;5.10;88.49;101589.60;3701542;78;98859;-85
2022/10/12 02:24:36;;;;;;;34.77;16.23;;;;;;;5.10;88.39;101591.52;3693948;78;26517;-85
2022/10/12 02:29:41;;;;;;;35.25;15.30;;;;;;;5.05;88.52;101596.55;3674380;78;98371;-85
2022/10/12 02:34:55;;;;;;;27.90;14.98;;;;;;;5.06;88.60;101593.25;3685580;78;25889;-85
2022/10/12 02:40:07;;;;;;;28.27;15.70;;;;;;;5.01;88.29;101598.83;3714322;78;98692;-85
2022/10/12 02:45:12;;;;;;;24.20;13.80;;;;;;;4.95;88.43;101599.53;3654661;79;26330;-85
2022/10/12 02:50:16;;;;;;;23.45;12.50;;;;;;;4.91;88.59;101597.17;3743437;77;98480;-85
2022/10/12 02:55:16;;;;;;;26.17;14.73;;;;;;;4.91;88.69;101600.48;3759797;77;25998;-85
2022/10/12 03:00:18;;;;;;;23.57;12.50;;;;;;;4.89;88.60;101598.05;3732514;78;98632;-85
2022/10/12 03:05:18;;;;;;;23.70;10.43;;;;;;;4.85;88.63;101597.62;3744452;77;32974;-85
2022/10/12 03:10:19;;;;;;;20.53;10.70;;;;;;;4.82;88.68;101610.52;3745237;78;98681;-85
2022/10/12 03:15:20;;;;;;;20.87;9.07;;;;;;;4.80;88.67;101604.56;3748761;78;32917;-85
2022/10/12 03:20:21;;;;;;;21.02;10.45;;;;;;;4.77;88.65;101610.63;3740203;76;98463;-85
2022/10/12 03:25:22;;;;;;;16.87;9.33;;;;;;;4.74;88.81;101606.60;3760270;78;32842;-85
2022/10/12 03:30:23;;;;;;;17.40;10.07;;;;;;;4.71;88.77;101606.41;3749876;78;100178;-85
2022/10/12 03:35:24;;;;;;;20.93;12.13;;;;;;;4.68;88.85;101609.20;3765178;76;33530;-85
2022/10/12 03:40:25;;;;;;;19.75;10.90;;;;;;;4.65;88.88;101613.90;3750144;78;98639;-85
2022/10/12 03:45:26;;;;;;;19.77;10.37;;;;;;;4.62;89.03;101606.89;3749434;77;31626;-84
2022/10/12 03:50:27;;;;;;;21.13;10.80;;;;;;;4.59;88.96;101608.89;3765476;77;98569;-85
2022/10/12 03:55:28;;;;;;;20.13;11.50;;;;;;;4.55;88.96;101608.70;3728490;77;31720;-85
2022/10/12 04:00:29;;;;;;;20.40;10.13;;;;;;;4.53;89.15;101608.19;3714378;78;98492;-85
2022/10/12 04:05:31;;;;;;;22.97;11.23;;;;;;;4.50;89.11;101611.55;3726139;79;31573;-85
2022/10/12 04:10:32;;;;;;;21.97;10.93;;;;;;;4.48;89.16;101615.12;3723559;78;98533;-85
2022/10/12 04:15:32;;;;;;;20.93;8.37;;;;;;;4.46;88.96;101616.54;3727450;79;31620;-85
2022/10/12 04:20:33;;;;;;;22.97;10.57;;;;;;;4.43;89.22;101622.05;3703819;78;98327;-85
2022/10/12 04:25:34;;;;;;;18.57;8.73;;;;;;;4.41;89.36;101616.11;3730152;79;31623;-85
2022/10/12 04:30:35;;;;;;;17.73;9.93;;;;;;;4.39;89.22;101615.62;3728031;78;98304;-85
2022/10/12 04:35:36;;;;;;;16.73;8.67;;;;;;;4.38;89.31;101633.09;3723944;78;35924;-85
2022/10/12 04:40:36;;;;;;;23.90;9.67;;;;;;;4.35;89.38;101621.97;3711896;79;98519;-85
2022/10/12 04:45:37;;;;;;;21.93;8.90;;;;;;;4.33;89.37;101629.66;3712491;79;34810;-85
2022/10/12 04:50:38;;;;;;;22.77;9.37;;;;;;;4.31;89.38;101625.87;3719423;78;98298;-84
2022/10/12 04:55:39;;;;;;;22.80;10.03;;;;;;;4.28;89.28;101627.04;3739279;76;34838;-85
2022/10/12 05:00:39;;;;;;;22.57;9.43;;;;;;;4.26;89.41;101632.00;3786679;76;98420;-85
2022/10/12 05:05:43;;;;;;;25.90;12.53;;;;;;;4.23;89.52;101631.23;3681762;79;35106;-85
2022/10/12 05:10:45;;;;;;;33.40;15.73;;;;;;;4.21;89.47;101634.26;3698877;78;98845;-85
2022/10/12 05:15:46;;;;;;;27.87;13.07;;;;;;;4.18;89.49;101635.43;3719037;79;34906;-84
2022/10/12 05:20:47;;;;;;;31.80;14.63;;;;;;;4.14;89.40;101647.50;3686358;79;98328;-84
2022/10/12 05:25:48;;;;;;;31.83;17.73;;;;;;;4.07;89.37;101651.20;3729179;78;35531;-84
2022/10/12 05:30:50;;;;;;;36.27;16.00;;;;;;;4.04;89.52;101644.98;3695986;79;98357;-84
2022/10/12 05:35:51;;;;;;;31.67;16.13;;;;;;;4.00;89.51;101647.27;3714973;79;35969;-85
2022/10/12 05:40:52;;;;;;;34.07;18.57;;;;;;;3.94;89.63;101643.81;3744275;78;98849;-84
2022/10/12 05:45:53;;;;;;;35.60;16.43;;;;;;;3.95;89.87;101642.73;3743974;78;34837;-85
2022/10/12 05:50:54;;;;;;;33.30;18.40;;;;;;;3.97;90.00;101647.85;3743429;78;98560;-85
2022/10/12 05:55:58;;;;;;;35.27;20.17;;;;;;;3.96;90.17;101653.05;3736644;78;34841;-85
2022/10/12 06:01:07;;;;;;;33.53;17.23;;;;;;;3.99;90.10;101651.89;3847798;76;98354;-85
2022/10/12 06:06:09;;;;;;;32.10;17.70;;;;;;;4.01;90.31;101652.95;3855983;76;98375;-84
2022/10/12 06:11:10;;;;;;;36.35;19.67;;;;;;;3.99;90.20;101658.70;3845604;76;31726;-84
2022/10/12 06:16:10;;;;;;;39.57;21.43;;;;;;;4.00;90.47;101661.70;3836700;76;98526;-84
2022/10/12 06:21:11;;;;;;;39.90;20.70;;;;;;;3.99;90.76;101658.70;3835288;76;34850;-84
2022/10/12 06:26:13;;;;;;;43.58;23.80;;;;;;;4.06;90.86;101665.11;3834518;76;98870;-84
2022/10/12 06:31:14;;;;;;;45.83;23.93;;;;;;;4.12;91.06;101671.52;3845062;76;34832;-84
2022/10/12 06:36:15;;;;;;;42.37;22.93;;;;;;;4.19;91.19;101666.46;3842694;76;100464;-84
2022/10/12 06:41:16;;;;;;;42.63;21.80;;;;;;;4.24;91.23;101672.35;3850838;76;35597;-84
2022/10/12 06:46:17;;;;;;;44.33;22.73;;;;;;;4.31;91.46;101671.41;3832198;76;98679;-83
2022/10/12 06:51:18;;;;;;;43.90;22.63;;;;;;;4.37;92.25;101673.70;3844138;76;34785;-84
2022/10/12 06:56:18;;;;;;;38.47;20.80;;;;;;;4.44;92.49;101674.66;3860830;75;98487;-84
2022/10/12 07:01:19;;;;;;;45.60;21.75;;;;;;;4.52;93.83;101667.92;3872110;76;34836;-84
2022/10/12 07:06:20;;;;;;;41.40;22.93;;;;;;;4.65;95.89;101669.80;3850118;76;98726;-84
2022/10/12 07:11:21;;;;;;;39.03;20.77;;;;;;;4.78;96.58;101679.05;3852025;76;25853;-85
2022/10/12 07:16:22;;;;;;;43.40;18.03;;;;;;;4.94;98.13;101678.95;3856654;76;98706;-85
2022/10/12 07:21:23;;;;;;;25.70;12.37;;;;;;;5.10;98.81;101680.20;3865443;74;32939;-85
2022/10/12 07:26:24;;;;;;;28.23;12.47;;;;;;;5.31;100.00;101684.86;3869448;76;98507;-85
2022/10/12 07:31:24;;;;;;;23.63;10.27;;;;;;;5.52;100.00;101691.39;3854765;76;32477;-85
2022/10/12 07:36:25;;;;;;;30.23;11.22;;;;;;;5.71;100.00;101681.06;3858203;75;98956;-85
2022/10/12 07:41:26;;;;;;;21.63;9.40;;;;;;;5.95;100.00;101688.92;3866107;76;32417;-86
2022/10/12 07:46:27;;;;;;;26.17;10.38;;;;;;;6.19;100.00;101689.31;3853222;76;98415;-86
2022/10/12 07:51:29;;;;;;;26.47;9.37;;;;;;;6.47;100.00;101694.77;3857993;76;28624;-85
2022/10/12 07:56:30;;;;;;;20.82;7.20;;;;;;;6.79;100.00;101692.97;3849804;76;98788;-85
2022/10/12 08:01:33;;;;;;;19.10;6.03;;;;;;;7.07;100.00;101689.59;3832135;76;26429;-85
2022/10/12 08:06:34;;;;;;;17.98;6.45;;;;;;;7.42;100.00;101689.78;3822715;76;99018;-86
2022/10/12 08:11:39;;;;;;;17.33;6.93;;;;;;;7.79;100.00;101681.41;3839212;76;25919;-85
2022/10/12 08:16:42;;;;;;;22.70;6.10;;;;;;;8.22;100.00;101688.88;3824928;75;98930;-85
2022/10/12 08:21:43;;;;;;;14.90;6.20;;;;;;;8.63;100.00;101688.42;3825864;76;33091;-86
2022/10/12 08:26:44;;;;;;;14.87;4.97;;;;;;;9.05;100.00;101680.39;3821755;76;99031;-86
2022/10/12 08:31:48;;;;;;;16.00;4.33;;;;;;;9.58;100.00;101681.74;3815675;76;26391;-86
2022/10/12 08:36:47;;;;;;;14.43;4.73;;;;;;;10.12;99.99;101682.41;3817142;76;99029;-86
2022/10/12 08:42:02;;;;;;;14.30;4.47;;;;;;;10.69;100.00;101677.56;3806665;76;27619;-79
2022/10/12 09:56:25;;;;;;;11.37;2.80;;;;;;;17.61;76.97;101668.99;3850904;74;28628;-90
2022/10/12 10:01:34;;;;;;;9.93;3.22;;;;;;;18.19;76.08;101658.89;3758460;77;25973;-87
2022/10/12 10:06:37;;;;;;;10.03;3.12;;;;;;;18.86;74.19;101661.80;3740149;77;98645;-87
2022/10/12 10:11:38;;;;;;;9.35;2.70;;;;;;;19.30;69.71;101658.48;3825323;76;27940;-88
2022/10/12 10:16:49;;;;;;;12.23;2.62;;;;;;;19.66;68.82;101648.67;3823794;76;98572;-87
2022/10/12 10:21:52;;;;;;;11.22;1.80;;;;;;;20.06;67.29;101650.17;3827837;76;25890;-86
2022/10/12 10:27:03;;;;;;;8.53;1.80;;;;;;;20.34;64.89;101641.59;3807817;76;98750;-87
2022/10/12 10:32:25;;;;;;;8.83;2.90;;;;;;;20.27;61.06;101647.84;3798659;76;25975;-87
2022/10/12 10:37:23;;;;;;;11.63;2.67;;;;;;;20.18;63.17;101645.53;3787631;76;98648;-87
2022/10/12 10:42:28;;;;;;;12.25;2.83;;;;;;;20.56;60.31;101633.76;3748482;77;31702;-86
2022/10/12 10:47:33;;;;;;;12.10;3.42;;;;;;;20.75;60.33;101635.94;3732361;76;98796;-86
2022/10/12 10:52:36;;;;;;;11.20;3.73;;;;;;;20.75;58.42;101624.15;3748634;77;26313;-87
2022/10/12 10:57:42;;;;;;;16.07;3.30;;;;;;;20.54;58.73;101624.38;3732769;77;98791;-89
2022/10/12 11:02:55;;;;;;;10.13;2.65;;;;;;;20.55;60.16;101619.59;3743076;77;25924;-91
2022/10/12 11:08:00;;;;;;;10.95;2.85;;;;;;;20.59;58.12;101622.53;3732803;77;98890;-89
2022/10/12 11:13:12;;;;;;;12.93;3.15;;;;;;;20.60;56.48;101619.14;3723226;77;25899;-89
2022/10/12 11:18:28;;;;;;;11.60;3.20;;;;;;;20.56;57.01;101617.78;3719333;77;99113;-89
2022/10/12 11:24:10;;;;;;;9.55;2.10;;;;;;;20.47;55.82;101611.88;3709227;77;25760;-89
2022/10/12 11:29:13;;;;;;;8.95;2.25;;;;;;;20.43;55.75;101606.14;3708566;77;98561;-90
2022/10/12 11:34:18;;;;;;;10.05;2.52;;;;;;;20.41;56.46;101603.75;3724369;77;25763;-87
2022/10/12 11:39:30;;;;;;;14.95;3.62;;;;;;;20.52;55.51;101605.02;3713895;77;98861;-88
2022/10/12 11:44:43;;;;;;;9.73;2.83;;;;;;;20.49;53.78;101606.65;3722869;77;31689;-88
2022/10/12 11:50:02;;;;;;;10.63;2.33;;;;;;;20.36;55.15;101596.41;3718317;77;98369;-88
2022/10/12 11:55:31;;;;;;;10.60;2.72;;;;;;;20.40;54.97;101592.39;3716965;77;28800;-87
2022/10/12 12:01:04;;;;;;;8.50;2.92;;;;;;;20.47;54.02;101588.11;3714713;77;98458;-88
2022/10/12 12:06:31;;;;;;;10.35;3.30;;;;;;;20.16;53.94;101580.83;3718485;78;98696;-88
2022/10/12 12:11:33;;;;;;;8.43;2.80;;;;;;;20.23;55.03;101572.39;3715818;78;31710;-89
2022/10/12 12:16:41;;;;;;;9.85;2.95;;;;;;;20.33;54.82;101570.69;3709042;77;98715;-88
2022/10/12 12:22:20;;;;;;;8.98;2.65;;;;;;;20.28;54.76;101573.31;3719708;77;26071;-89
2022/10/12 12:27:41;;;;;;;9.98;2.47;;;;;;;20.27;53.97;101570.33;3723014;77;98403;-87
2022/10/12 12:32:50;;;;;;;9.18;2.12;;;;;;;20.12;54.49;101572.30;3737763;77;26109;-89
2022/10/12 12:38:16;;;;;;;10.28;3.58;;;;;;;19.95;55.09;101570.44;3716727;77;98812;-87
2022/10/12 12:43:35;;;;;;;13.95;4.15;;;;;;;19.55;53.46;101569.75;3713879;78;26651;-87
2022/10/12 12:48:44;;;;;;;9.43;2.12;;;;;;;19.22;54.92;101568.98;3714147;77;98587;-87
2022/10/12 12:54:02;;;;;;;11.57;2.72;;;;;;;19.08;55.05;101573.23;3714969;77;31648;-87
2022/10/12 12:59:45;;;;;;;8.20;1.87;;;;;;;19.10;55.78;101572.22;3639474;78;99232;-87
2022/10/12 13:05:11;;;;;;;10.72;3.10;;;;;;;19.03;56.17;101570.25;3627105;79;25872;-89
2022/10/12 13:10:51;;;;;;;12.40;3.83;;;;;;;18.70;54.96;101565.22;3644517;79;98712;-90
2022/10/12 13:16:23;;;;;;;13.60;2.60;;;;;;;18.54;55.32;101562.09;3660590;79;31652;-89
2022/10/12 13:21:39;;;;;;;9.43;2.52;;;;;;;18.51;56.78;101560.72;3672101;79;26035;-87
2022/10/12 13:26:44;;;;;;;11.75;3.17;;;;;;;18.75;56.74;101553.65;3656054;79;98586;-88
2022/10/12 13:31:47;;;;;;;13.30;2.80;;;;;;;18.61;56.11;101550.12;3648431;78;25822;-86
2022/10/12 13:36:59;;;;;;;11.00;3.12;;;;;;;18.49;56.01;101558.36;3635697;79;98930;-89
2022/10/12 13:42:00;;;;;;;8.88;2.95;;;;;;;18.42;55.90;101551.39;3617428;80;31759;-87
2022/10/12 13:47:21;;;;;;;10.78;2.90;;;;;;;18.26;56.83;101542.64;3633122;79;98779;-86
2022/10/12 13:52:32;;;;;;;10.90;3.27;;;;;;;18.14;56.15;101543.69;3695405;78;32479;-88
2022/10/12 13:57:48;;;;;;;12.58;3.25;;;;;;;18.18;57.82;101541.66;3734591;78;99145;-88
2022/10/12 14:03:02;;;;;;;11.20;3.00;;;;;;;18.18;57.62;101530.52;3759961;78;26960;-88
2022/10/12 14:08:15;;;;;;;17.45;4.90;;;;;;;18.06;57.16;101537.91;3749182;77;98677;-89
2022/10/12 14:13:29;;;;;;;10.48;2.80;;;;;;;17.73;57.00;101534.98;3729397;78;33037;-89
2022/10/12 14:18:34;;;;;;;6.28;2.52;;;;;;;17.56;57.03;101532.19;3727808;77;99151;-87
2022/10/12 14:23:43;;;;;;;10.80;2.87;;;;;;;17.38;56.59;101543.30;3730123;78;25819;-87
2022/10/12 14:28:44;;;;;;;10.80;2.95;;;;;;;17.06;57.17;101539.63;3721799;77;99396;-89
2022/10/12 14:33:44;;;;;;;13.53;3.35;;;;;;;17.00;57.98;101541.83;3721370;78;30373;-88
2022/10/12 14:38:48;;;;;;;12.28;2.47;;;;;;;16.89;58.81;101533.44;3696749;78;98693;-89
2022/10/12 14:44:12;;;;;;;14.30;3.15;;;;;;;16.77;58.38;101531.02;3696527;78;32194;-89
2022/10/12 14:49:19;;;;;;;10.55;3.02;;;;;;;16.41;58.10;101530.66;3722102;77;98848;-89
2022/10/12 14:54:22;;;;;;;14.78;3.50;;;;;;;16.23;59.06;101522.80;3727648;78;31693;-88
2022/10/12 14:59:23;;;;;;;9.35;3.20;;;;;;;16.12;59.49;101512.80;3727604;77;99120;-92
2022/10/12 15:04:23;;;;;;;11.77;2.97;;;;;;;15.88;59.78;101515.66;3745568;77;32131;-91
2022/10/12 15:09:24;;;;;;;11.33;3.95;;;;;;;15.68;60.77;101510.73;3733869;77;98511;-90
2022/10/12 15:14:25;;;;;;;13.03;3.87;;;;;;;15.46;60.85;101504.80;3746462;78;27924;-92
2022/10/12 15:19:26;;;;;;;16.35;4.75;;;;;;;15.32;61.69;101497.73;3727768;78;98763;-89
2022/10/12 15:24:27;;;;;;;8.87;3.03;;;;;;;15.17;62.23;101494.62;3744479;78;29106;-90
2022/10/12 15:35:38;;;;;;;10.32;3.22;;;;;;;14.91;63.61;101497.52;3490626;81;32383;-88
2022/10/12 15:40:33;;;;;;;9.63;3.45;;;;;;;14.69;63.98;101484.61;3560045;80;99021;-89
2022/10/12 15:45:38;;;;;;;10.15;3.47;;;;;;;14.47;64.02;101493.27;3705612;79;30090;-89
2022/10/12 15:50:44;;;;;;;11.70;3.87;;;;;;;14.27;64.47;101490.44;3715675;78;98514;-89
2022/10/12 15:55:44;;;;;;;9.77;3.77;;;;;;;14.07;64.25;101490.33;3738889;78;26574;-88
2022/10/12 16:00:45;;;;;;;7.77;2.53;;;;;;;13.88;65.01;101489.08;3732649;78;98496;-90
2022/10/12 16:05:46;;;;;;;10.40;2.50;;;;;;;13.68;65.39;101490.35;3740685;78;26916;-89
2022/10/12 16:10:47;;;;;;;12.33;3.93;;;;;;;13.53;65.97;101485.76;3736570;77;98634;-89
2022/10/12 16:15:48;;;;;;;8.90;3.43;;;;;;;13.38;66.49;101484.53;3751103;77;27452;-89
2022/10/12 16:20:50;;;;;;;9.00;3.57;;;;;;;13.21;67.09;101477.55;3730660;77;99107;-89
2022/10/12 16:25:52;;;;;;;15.07;4.70;;;;;;;13.09;67.69;101483.84;3740317;78;25733;-90
2022/10/12 16:30:54;;;;;;;12.83;4.00;;;;;;;12.90;68.11;101497.09;3737020;77;98568;-88
2022/10/12 16:35:55;;;;;;;13.63;4.03;;;;;;;12.74;68.48;101496.39;3726114;77;27792;-89
2022/10/12 16:40:55;;;;;;;12.40;4.97;;;;;;;12.61;69.06;101492.77;3728793;77;98300;-88
2022/10/12 16:45:56;;;;;;;13.78;4.72;;;;;;;12.49;69.00;101495.69;3728727;77;26368;-88
2022/10/12 16:50:58;;;;;;;11.23;4.70;;;;;;;12.37;69.19;101498.59;3720993;77;98559;-88
2022/10/12 16:55:59;;;;;;;12.67;4.03;;;;;;;12.22;69.30;101498.08;3726919;77;25795;-89
2022/10/12 17:01:10;;;;;;;10.37;3.20;;;;;;;12.13;69.71;101500.23;3721244;78;98891;-89
2022/10/12 17:06:11;;;;;;;9.57;2.60;;;;;;;12.02;69.96;101494.50;3712865;78;99026;-88
2022/10/12 17:11:15;;;;;;;7.40;3.10;;;;;;;11.92;70.36;101502.52;3647966;80;26310;-89
2022/10/12 17:21:40;;;;;;;9.08;2.80;;;;;;;11.75;70.84;101500.16;3702272;79;31665;-88
2022/10/12 17:26:40;;;;;;;10.93;3.58;;;;;;;11.66;71.25;101499.56;3696337;78;98530;-87
2022/10/12 17:31:42;;;;;;;10.60;4.10;;;;;;;11.56;71.64;101497.32;3693933;78;25933;-89
2022/10/12 17:36:43;;;;;;;16.67;7.20;;;;;;;11.46;72.17;101499.23;3698781;78;98637;-89
2022/10/12 17:41:45;;;;;;;16.20;7.30;;;;;;;11.39;72.48;101505.36;3718352;78;26907;-87
2022/10/12 17:46:48;;;;;;;22.45;10.05;;;;;;;11.31;72.99;101501.41;3700809;79;99102;-88
2022/10/12 17:51:49;;;;;;;20.40;9.75;;;;;;;11.21;73.33;101499.19;3691372;79;31606;-92
2022/10/12 17:56:51;;;;;;;21.07;9.08;;;;;;;11.12;73.46;101497.98;3703765;78;99126;-87
2022/10/12 18:01:52;;;;;;;21.33;10.53;;;;;;;11.01;73.23;101501.63;3724551;78;26516;-88
2022/10/12 18:06:53;;;;;;;29.93;15.30;;;;;;;10.91;73.86;101487.00;3711914;78;98899;-87
2022/10/12 18:11:54;;;;;;;27.90;11.20;;;;;;;10.81;73.97;101494.39;3730635;78;25847;-87
2022/10/12 18:16:56;;;;;;;24.40;10.13;;;;;;;10.69;74.01;101504.88;3709834;78;98877;-87
2022/10/12 18:21:57;;;;;;;23.00;10.90;;;;;;;10.59;74.30;101499.09;3709021;78;26554;-88
2022/10/12 18:26:58;;;;;;;30.13;11.80;;;;;;;10.50;74.60;101497.87;3709996;77;99089;-87
2022/10/12 18:32:00;;;;;;;30.03;13.87;;;;;;;10.45;75.32;101496.75;3702935;78;25819;-87
2022/10/12 18:37:01;;;;;;;30.20;13.63;;;;;;;10.39;75.42;101497.33;3679962;78;99232;-87
2022/10/12 18:42:02;;;;;;;20.87;11.10;;;;;;;10.34;75.81;101492.07;3671280;78;35287;-87
2022/10/12 18:47:03;;;;;;;26.63;10.83;;;;;;;10.27;75.92;101491.88;3668960;79;99340;-87
2022/10/12 18:52:04;;;;;;;35.13;14.60;;;;;;;10.22;76.40;101483.87;3680284;80;35522;-88
2022/10/12 18:57:05;;;;;;;47.47;17.17;;;;;;;10.14;76.64;101481.48;3680605;78;98715;-87
2022/10/12 19:02:06;;;;;;;43.13;16.93;;;;;;;10.08;77.00;101486.22;3729895;78;35305;-87
2022/10/12 19:07:07;;;;;;;37.20;17.03;;;;;;;10.01;77.18;101484.58;3613841;80;99009;-87
2022/10/12 19:12:08;;;;;;;45.63;22.33;;;;;;;9.93;77.19;101480.81;3604824;80;36120;-87
2022/10/12 19:17:09;;;;;;;40.40;19.07;;;;;;;9.87;77.71;101493.79;3596637;80;98899;-86
2022/10/12 19:22:10;;;;;;;32.17;15.48;;;;;;;9.80;77.90;101486.67;3658685;80;36261;-87
2022/10/12 19:27:11;;;;;;;35.00;17.50;;;;;;;9.75;78.27;101491.06;3611885;80;99098;-87
2022/10/12 19:32:11;;;;;;;28.43;13.83;;;;;;;9.68;78.59;101485.33;3601698;80;26162;-87
2022/10/12 19:37:12;;;;;;;32.27;17.67;;;;;;;9.64;78.74;101485.77;3586170;81;98558;-87
2022/10/12 19:42:13;;;;;;;48.00;22.63;;;;;;;9.56;78.97;101484.78;3613832;80;25900;-87
2022/10/12 19:47:14;;;;;;;33.77;16.93;;;;;;;9.52;79.28;101487.16;3613530;80;98548;-87
2022/10/12 19:52:19;;;;;;;33.87;16.70;;;;;;;9.45;79.40;101480.08;3598644;80;33857;-88
2022/10/12 19:57:19;;;;;;;31.42;16.20;;;;;;;9.38;79.83;101475.73;3586485;80;98674;-87
2022/10/12 20:02:20;;;;;;;24.90;13.30;;;;;;;9.32;79.88;101474.36;3676469;78;27098;-88
2022/10/12 20:07:24;;;;;;;23.60;11.90;;;;;;;9.26;79.95;101474.36;3676970;79;98629;-88
2022/10/12 20:12:24;;;;;;;23.10;12.85;;;;;;;9.20;80.38;101466.09;3662685;78;34773;-87
2022/10/12 20:17:25;;;;;;;35.47;15.57;;;;;;;9.14;80.73;101465.53;3658698;78;98833;-88
2022/10/12 20:22:26;;;;;;;28.63;14.13;;;;;;;9.09;80.79;101466.31;3711662;79;26265;-89
2022/10/12 20:27:27;;;;;;;28.67;13.73;;;;;;;9.05;81.04;101465.42;3690219;78;99057;-85
2022/10/12 20:32:28;;;;;;;29.17;14.30;;;;;;;8.99;81.14;101459.33;3695425;79;26513;-89
2022/10/12 20:37:31;;;;;;;30.33;16.17;;;;;;;8.94;81.43;101458.77;3708601;77;98575;-88
2022/10/12 20:42:32;;;;;;;33.45;16.23;;;;;;;8.90;81.70;101459.20;3767294;77;35429;-88
2022/10/12 20:47:33;;;;;;;38.80;17.37;;;;;;;8.85;81.97;101462.98;3747373;77;98505;-88
2022/10/12 20:52:34;;;;;;;34.63;15.53;;;;;;;8.81;82.24;101466.73;3768326;76;25909;-88
2022/10/12 20:57:36;;;;;;;31.53;16.50;;;;;;;8.76;81.88;101465.57;3756762;77;99004;-88
2022/10/12 21:02:39;;;;;;;31.77;15.33;;;;;;;8.70;82.60;101466.93;3756760;78;26440;-88
2022/10/12 21:07:40;;;;;;;35.00;14.38;;;;;;;8.64;82.24;101454.01;3751947;78;98928;-87
2022/10/12 21:12:41;;;;;;;29.33;14.33;;;;;;;8.59;82.69;101458.34;3752581;77;26224;-87
2022/10/12 21:17:42;;;;;;;28.52;13.45;;;;;;;8.55;83.12;101453.28;3749972;78;98844;-87
2022/10/12 21:22:46;;;;;;;31.07;14.30;;;;;;;8.52;83.30;101451.80;3742876;78;26070;-87
2022/10/12 21:27:47;;;;;;;32.25;15.25;;;;;;;8.49;83.54;101456.02;3754554;77;98491;-88
2022/10/12 21:33:06;;;;;;;40.47;18.80;;;;;;;8.47;83.66;101452.00;3757952;78;27211;-88
2022/10/12 21:37:57;;;;;;;45.50;22.63;;;;;;;8.44;83.74;101459.52;3642970;77;98580;-87
2022/10/12 21:42:58;;;;;;;42.87;18.83;;;;;;;8.40;83.93;101457.25;3764587;78;25769;-87
2022/10/12 21:47:58;;;;;;;48.53;23.83;;;;;;;8.35;83.90;101450.00;3704982;78;98800;-86
2022/10/12 21:52:59;;;;;;;46.77;22.60;;;;;;;8.31;84.17;101446.91;3702637;78;33012;-87
2022/10/12 21:58:00;;;;;;;48.10;21.37;;;;;;;8.28;84.22;101452.50;3684028;78;98881;-86
2022/10/12 22:03:01;;;;;;;39.27;18.53;;;;;;;8.22;84.31;101445.62;3686476;80;33197;-86
2022/10/12 22:08:01;;;;;;;35.80;18.17;;;;;;;8.17;84.41;101460.87;3675329;80;98697;-87
2022/10/12 22:13:02;;;;;;;32.40;16.30;;;;;;;8.11;84.68;101450.44;3671679;79;33111;-86
2022/10/12 22:18:03;;;;;;;38.27;18.17;;;;;;;8.07;84.77;101445.42;3684148;79;98859;-87
2022/10/12 22:23:04;;;;;;;36.03;16.63;;;;;;;8.01;84.95;101443.44;3693830;79;25946;-87
2022/10/12 22:28:05;;;;;;;37.20;16.40;;;;;;;7.97;85.04;101448.56;3689425;79;98940;-87
2022/10/12 22:33:06;;;;;;;35.13;16.93;;;;;;;7.94;85.11;101445.10;3697713;79;27022;-87
2022/10/12 22:38:06;;;;;;;34.80;17.70;;;;;;;7.90;85.19;101446.34;3686402;78;98672;-87
2022/10/12 22:43:07;;;;;;;38.63;18.13;;;;;;;7.72;85.94;101413.92;3699736;78;26111;-87
2022/10/12 22:48:08;;;;;;;37.17;18.15;;;;;;;7.72;85.94;101413.92;3679593;78;98750;-87
2022/10/12 22:53:09;;;;;;;35.10;17.45;;;;;;;7.80;85.86;101432.25;3686743;79;26341;-87
2022/10/12 22:58:10;;;;;;;35.08;18.15;;;;;;;7.76;85.83;101428.01;3679255;79;98542;-86
2022/10/12 23:03:11;;;;;;;36.10;18.23;;;;;;;7.71;85.82;101433.69;3697109;79;32884;-87
2022/10/12 23:08:13;;;;;;;33.73;17.73;;;;;;;7.68;86.18;101428.08;3694610;79;98960;-87
2022/10/12 23:13:14;;;;;;;39.37;18.70;;;;;;;7.65;86.41;101433.66;3703006;79;32973;-87
2022/10/12 23:18:15;;;;;;;39.13;20.23;;;;;;;7.64;86.65;101432.61;3704302;79;98653;-87
2022/10/12 23:23:16;;;;;;;37.33;18.13;;;;;;;7.60;86.51;101427.00;3714084;78;33034;-87
2022/10/12 23:28:16;;;;;;;40.97;19.63;;;;;;;7.58;86.74;101431.98;3684351;78;98765;-86
2022/10/12 23:33:17;;;;;;;35.93;18.43;;;;;;;7.56;86.90;101435.64;3642849;79;32940;-87
2022/10/12 23:38:18;;;;;;;38.50;21.02;;;;;;;7.53;86.66;101432.17;3657157;78;99062;-87
2022/10/12 23:43:19;;;;;;;45.90;20.97;;;;;;;7.47;86.95;101425.30;3671320;79;32919;-87
2022/10/12 23:48:20;;;;;;;40.53;21.43;;;;;;;7.39;86.91;101425.34;3653414;78;98551;-86
2022/10/12 23:53:23;;;;;;;42.47;20.83;;;;;;;7.36;87.04;101431.50;3677327;80;32084;-87
2022/10/12 23:58:24;;;;;;;43.08;21.15;;;;;;;7.31;87.28;101417.41;3686125;78;98526;-86
